Time;durP1;ratioP1;P1;durP2;ratioP2;P2;SDS_P1;SDS_P2;PMS_P1;PMS_P2;Temp;Humidity;BMP_temperature;BMP_pressure;BME280_temperature;BME280_humidity;BME280_pressure;Samples;Min_cycle;Max_cycle;Signal;HPM_P1;HPM_P2
2022/01/16 00:00:16;;;;;;;68.13;34.72;;;;;;;;;;5142447;27;20074;-80
2022/01/16 00:05:20;;;;;;;77.53;39.88;;;;;;;;;;5160909;27;20128;-80
2022/01/16 00:07:47;;;;;;;75.85;40.50;;;;;;;;;;5160845;27;20433;-80
2022/01/16 00:10:13;;;;;;;78.05;41.33;;;;;;;;;;5160681;27;20050;-80
2022/01/16 00:12:39;;;;;;;81.63;40.42;;;;;;;;;;5160449;27;20083;-80
2022/01/16 00:15:07;;;;;;;80.00;40.17;;;;;;;;;;5142299;27;20043;-80
2022/01/16 00:17:41;;;;;;;81.55;41.63;;;;;;;;;;5141788;27;20047;-80
2022/01/16 00:20:07;;;;;;;84.35;41.47;;;;;;;;;;5160568;27;20088;-80
2022/01/16 00:22:38;;;;;;;88.35;43.38;;;;;;;;;;5160412;27;20034;-81
2022/01/16 00:25:04;;;;;;;94.30;42.20;;;;;;;;;;5160240;27;20097;-80
2022/01/16 00:27:30;;;;;;;78.85;39.03;;;;;;;;;;5138022;27;20420;-80
2022/01/16 00:29:56;;;;;;;85.80;41.22;;;;;;;;;;5138665;27;20499;-80
2022/01/16 00:32:22;;;;;;;91.40;41.10;;;;;;;;;;5157063;27;20430;-80
2022/01/16 00:34:48;;;;;;;86.65;41.75;;;;;;;;;;5157169;27;20129;-81
2022/01/16 00:37:14;;;;;;;89.03;42.10;;;;;;;;;;5157075;27;20045;-79
2022/01/16 00:39:40;;;;;;;92.05;43.13;;;;;;;;;;5156898;27;20051;-80
2022/01/16 00:42:07;;;;;;;87.40;40.95;;;;;;;;;;5138768;27;20421;-80
2022/01/16 00:44:33;;;;;;;83.10;41.00;;;;;;;;;;5156719;27;20049;-80
2022/01/16 00:46:59;;;;;;;71.75;36.25;;;;;;;;;;5138418;27;20464;-79
2022/01/16 00:49:25;;;;;;;76.10;37.70;;;;;;;;;;5157022;27;20046;-80
2022/01/16 00:51:51;;;;;;;74.35;35.35;;;;;;;;;;5156689;27;20043;-79
2022/01/16 00:54:17;;;;;;;73.95;33.72;;;;;;;;;;5156744;27;20034;-80
2022/01/16 00:56:43;;;;;;;76.53;38.40;;;;;;;;;;5138320;27;20474;-80
2022/01/16 00:59:09;;;;;;;75.45;36.88;;;;;;;;;;5138241;27;20117;-80
2022/01/16 01:01:35;;;;;;;75.32;35.10;;;;;;;;;;5156579;27;20467;-80
2022/01/16 01:04:02;;;;;;;76.55;36.13;;;;;;;;;;5156404;27;20379;-79
2022/01/16 01:06:28;;;;;;;77.35;37.63;;;;;;;;;;5138193;27;20121;-80
2022/01/16 01:08:54;;;;;;;79.63;37.85;;;;;;;;;;5156467;27;20038;-80
2022/01/16 01:11:25;;;;;;;84.03;39.85;;;;;;;;;;5156123;27;20041;-80
2022/01/16 01:16:21;;;;;;;83.10;38.90;;;;;;;;;;5138085;27;20057;-79
2022/01/16 01:18:47;;;;;;;79.45;38.67;;;;;;;;;;5156266;27;20096;-80
2022/01/16 01:21:27;;;;;;;75.22;38.25;;;;;;;;;;5156245;27;20479;-80
2022/01/16 01:23:54;;;;;;;73.95;37.47;;;;;;;;;;5156111;27;20443;-79
2022/01/16 01:26:25;;;;;;;73.68;37.92;;;;;;;;;;5155683;27;20509;-79
2022/01/16 01:28:51;;;;;;;73.28;36.95;;;;;;;;;;5155666;27;20042;-80
2022/01/16 01:31:17;;;;;;;74.93;38.95;;;;;;;;;;5155949;27;20090;-80
2022/01/16 01:33:43;;;;;;;71.40;37.95;;;;;;;;;;5137548;27;20043;-79
2022/01/16 01:36:09;;;;;;;73.10;38.22;;;;;;;;;;5155916;27;20049;-79
2022/01/16 01:38:35;;;;;;;70.85;36.25;;;;;;;;;;5155499;27;20038;-80
2022/01/16 01:41:01;;;;;;;69.45;36.75;;;;;;;;;;5137070;27;20042;-80
2022/01/16 01:51:36;;;;;;;71.47;36.90;;;;;;;;;;5155392;27;20575;-79
2022/01/16 01:54:03;;;;;;;72.93;38.42;;;;;;;;;;5136836;27;20471;-80
2022/01/16 01:56:29;;;;;;;77.68;39.72;;;;;;;;;;5155449;27;20047;-80
2022/01/16 01:58:57;;;;;;;73.28;36.58;;;;;;;;;;5155387;27;20060;-80
2022/01/16 02:01:24;;;;;;;78.70;39.25;;;;;;;;;;5155436;27;20043;-79
2022/01/16 02:03:50;;;;;;;77.20;38.33;;;;;;;;;;5136610;27;20078;-79
2022/01/16 02:06:16;;;;;;;80.57;38.55;;;;;;;;;;5136826;27;20451;-80
2022/01/16 02:08:43;;;;;;;84.95;41.35;;;;;;;;;;5155015;27;20045;-79
2022/01/16 02:11:12;;;;;;;77.07;40.42;;;;;;;;;;5155153;27;20042;-79
2022/01/16 02:13:48;;;;;;;80.80;39.05;;;;;;;;;;5155201;27;20041;-79
2022/01/16 02:35:11;;;;;;;69.32;34.20;;;;;;;;;;5136242;27;20046;-80
2022/01/16 02:37:37;;;;;;;75.88;37.00;;;;;;;;;;5154821;27;20077;-79
2022/01/16 02:40:12;;;;;;;67.45;33.60;;;;;;;;;;5154875;27;20125;-79
2022/01/16 02:42:42;;;;;;;69.55;33.42;;;;;;;;;;5154553;27;20053;-79
2022/01/16 02:45:16;;;;;;;82.28;36.03;;;;;;;;;;5137055;27;20035;-79
2022/01/16 02:47:42;;;;;;;77.20;35.70;;;;;;;;;;5154660;27;20047;-80
2022/01/16 02:50:08;;;;;;;86.78;36.95;;;;;;;;;;5153920;27;20131;-80
2022/01/16 02:52:34;;;;;;;87.25;37.05;;;;;;;;;;5154147;27;20034;-80
2022/01/16 02:55:01;;;;;;;81.28;37.22;;;;;;;;;;5154332;27;20040;-80
2022/01/16 02:57:29;;;;;;;89.85;38.42;;;;;;;;;;5154513;27;20042;-79
2022/01/16 02:59:56;;;;;;;93.10;38.03;;;;;;;;;;5154315;27;20043;-79
2022/01/16 03:02:23;;;;;;;85.57;38.50;;;;;;;;;;5154319;27;20042;-80
2022/01/16 03:04:50;;;;;;;88.00;37.63;;;;;;;;;;5154430;27;20046;-80
2022/01/16 03:07:16;;;;;;;101.18;39.33;;;;;;;;;;5154387;27;20053;-80
2022/01/16 03:10:12;;;;;;;89.30;38.08;;;;;;;;;;5154065;27;20376;-79
2022/01/16 03:12:38;;;;;;;88.63;38.25;;;;;;;;;;5154090;27;20042;-79
2022/01/16 03:15:06;;;;;;;92.97;38.80;;;;;;;;;;5135602;27;20095;-79
2022/01/16 03:21:52;;;;;;;103.47;39.17;;;;;;;;;;5135930;27;20121;-79
2022/01/16 03:23:06;;;;;;;98.63;38.50;;;;;;;;;;5153987;27;20086;-80
2022/01/16 03:25:32;;;;;;;103.43;38.83;;;;;;;;;;5154130;27;20130;-79
2022/01/16 03:27:58;;;;;;;100.00;39.20;;;;;;;;;;5153878;27;20436;-79
2022/01/16 03:30:24;;;;;;;100.53;39.72;;;;;;;;;;5135593;27;20042;-79
2022/01/16 03:32:50;;;;;;;99.65;38.13;;;;;;;;;;5153988;27;20039;-79
2022/01/16 03:35:17;;;;;;;108.15;39.53;;;;;;;;;;5135482;27;20107;-79
2022/01/16 03:37:43;;;;;;;109.15;39.40;;;;;;;;;;5153804;27;20117;-79
2022/01/16 03:40:11;;;;;;;101.13;39.03;;;;;;;;;;5153869;27;20047;-79
2022/01/16 03:42:37;;;;;;;123.97;41.35;;;;;;;;;;5154119;27;20054;-80
2022/01/16 03:45:05;;;;;;;116.28;40.88;;;;;;;;;;5154025;27;20079;-79
2022/01/16 03:47:31;;;;;;;110.85;40.00;;;;;;;;;;5154147;27;20047;-80
2022/01/16 03:49:57;;;;;;;114.95;38.67;;;;;;;;;;5153809;27;20119;-79
2022/01/16 03:52:23;;;;;;;115.47;38.65;;;;;;;;;;5153624;27;20125;-80
2022/01/16 03:54:49;;;;;;;103.55;39.88;;;;;;;;;;5135290;27;20043;-80
2022/01/16 03:57:16;;;;;;;115.03;40.30;;;;;;;;;;5153866;27;20095;-80
2022/01/16 03:59:42;;;;;;;116.90;40.20;;;;;;;;;;5153891;27;20046;-80
2022/01/16 04:02:08;;;;;;;131.60;42.75;;;;;;;;;;5156434;27;20098;-79
2022/01/16 04:04:34;;;;;;;109.60;39.25;;;;;;;;;;5121975;27;20411;-80
2022/01/16 04:07:01;;;;;;;122.50;41.03;;;;;;;;;;5157554;27;20046;-80
2022/01/16 04:09:27;;;;;;;129.55;42.65;;;;;;;;;;5139229;27;20425;-80
2022/01/16 04:11:56;;;;;;;116.88;40.08;;;;;;;;;;5138727;27;20395;-80
2022/01/16 04:15:31;;;;;;;114.05;39.92;;;;;;;;;;5139033;27;20042;-81
2022/01/16 04:17:09;;;;;;;122.00;40.95;;;;;;;;;;5138840;27;20254;-80
2022/01/16 04:19:35;;;;;;;120.47;41.33;;;;;;;;;;5157376;27;20099;-80
2022/01/16 04:22:02;;;;;;;123.35;40.58;;;;;;;;;;5157461;27;20054;-80
2022/01/16 04:24:28;;;;;;;126.30;42.08;;;;;;;;;;5157202;27;20039;-80
2022/01/16 04:26:54;;;;;;;140.07;43.90;;;;;;;;;;5157245;27;20051;-79
2022/01/16 04:29:20;;;;;;;116.47;42.35;;;;;;;;;;5157014;27;20038;-80
2022/01/16 04:31:46;;;;;;;139.23;42.88;;;;;;;;;;5138559;27;20118;-79
2022/01/16 04:34:12;;;;;;;123.13;41.67;;;;;;;;;;5138835;27;20092;-80
2022/01/16 04:36:38;;;;;;;128.60;43.42;;;;;;;;;;5157187;27;20130;-79
2022/01/16 04:39:13;;;;;;;123.18;41.22;;;;;;;;;;5157044;27;20050;-79
2022/01/16 04:44:26;;;;;;;120.75;40.25;;;;;;;;;;5156828;27;20047;-79
2022/01/16 04:46:52;;;;;;;128.35;43.63;;;;;;;;;;5156930;27;20046;-79
2022/01/16 04:49:19;;;;;;;128.65;42.92;;;;;;;;;;5156906;27;20081;-79
2022/01/16 04:51:45;;;;;;;135.85;43.60;;;;;;;;;;5156700;27;20046;-80
2022/01/16 04:54:11;;;;;;;125.93;42.75;;;;;;;;;;5138448;27;20129;-80
2022/01/16 04:56:37;;;;;;;143.95;44.55;;;;;;;;;;5138197;27;20049;-79
2022/01/16 04:59:03;;;;;;;153.25;46.30;;;;;;;;;;5156529;27;20046;-80
2022/01/16 05:01:30;;;;;;;138.32;44.13;;;;;;;;;;5156791;27;20042;-80
2022/01/16 05:03:56;;;;;;;134.30;43.97;;;;;;;;;;5156580;27;20046;-80
2022/01/16 05:06:22;;;;;;;134.30;44.28;;;;;;;;;;5138355;27;20057;-79
2022/01/16 05:08:48;;;;;;;143.60;45.35;;;;;;;;;;5156299;27;20081;-81
2022/01/16 05:11:20;;;;;;;126.15;43.90;;;;;;;;;;5156285;27;20138;-80
2022/01/16 05:18:57;;;;;;;131.68;44.78;;;;;;;;;;5156208;27;20061;-80
2022/01/16 05:21:23;;;;;;;147.48;46.47;;;;;;;;;;5156124;27;20480;-80
2022/01/16 05:23:49;;;;;;;144.63;46.22;;;;;;;;;;5137670;27;20090;-80
2022/01/16 05:26:25;;;;;;;127.72;43.80;;;;;;;;;;5155646;27;20450;-80
2022/01/16 05:28:51;;;;;;;133.23;42.28;;;;;;;;;;5155970;27;20042;-80
2022/01/16 05:31:17;;;;;;;131.55;44.15;;;;;;;;;;5155832;27;20043;-80
2022/01/16 05:33:43;;;;;;;126.22;43.03;;;;;;;;;;5137736;27;20042;-81
2022/01/16 05:36:10;;;;;;;130.82;44.65;;;;;;;;;;5137380;27;20547;-80
2022/01/16 05:38:36;;;;;;;127.00;44.55;;;;;;;;;;5155644;27;20089;-80
2022/01/16 05:41:02;;;;;;;140.55;45.85;;;;;;;;;;5155874;27;20034;-80
2022/01/16 05:43:28;;;;;;;132.20;43.53;;;;;;;;;;5155637;27;20053;-80
2022/01/16 05:45:55;;;;;;;125.32;44.03;;;;;;;;;;5120371;27;20074;-80
2022/01/16 05:48:21;;;;;;;119.15;43.95;;;;;;;;;;5155664;27;20129;-80
2022/01/16 05:50:47;;;;;;;115.80;44.47;;;;;;;;;;5155628;27;20078;-80
2022/01/16 05:53:14;;;;;;;131.82;43.72;;;;;;;;;;5155352;27;20038;-80
2022/01/16 05:55:41;;;;;;;125.72;45.17;;;;;;;;;;5137316;27;20047;-80
2022/01/16 05:58:08;;;;;;;119.10;43.30;;;;;;;;;;5136805;27;20113;-80
2022/01/16 06:00:34;;;;;;;136.85;45.33;;;;;;;;;;5137043;27;20043;-80
2022/01/16 06:03:01;;;;;;;132.35;46.55;;;;;;;;;;5155165;27;20038;-80
2022/01/16 06:05:27;;;;;;;133.00;46.97;;;;;;;;;;5155107;27;20437;-80
2022/01/16 06:07:58;;;;;;;128.18;45.05;;;;;;;;;;5155139;27;20042;-80
2022/01/16 06:10:24;;;;;;;121.97;45.55;;;;;;;;;;5155201;27;20038;-80
2022/01/16 06:12:53;;;;;;;127.03;46.42;;;;;;;;;;5155278;27;20075;-80
2022/01/16 06:15:23;;;;;;;120.90;44.47;;;;;;;;;;5155122;27;20046;-80
2022/01/16 06:17:49;;;;;;;126.88;46.33;;;;;;;;;;5136912;27;20125;-80
2022/01/16 06:20:15;;;;;;;132.23;47.38;;;;;;;;;;5154905;27;20035;-80
2022/01/16 06:22:45;;;;;;;126.90;44.28;;;;;;;;;;5155118;27;20378;-79
2022/01/16 06:25:12;;;;;;;126.80;47.05;;;;;;;;;;5153898;27;20063;-79
2022/01/16 06:27:38;;;;;;;121.82;45.08;;;;;;;;;;5154988;27;20082;-80
2022/01/16 06:30:08;;;;;;;133.68;47.10;;;;;;;;;;5154944;27;20043;-80
2022/01/16 06:32:34;;;;;;;132.27;46.97;;;;;;;;;;5154564;27;20126;-79
2022/01/16 06:35:00;;;;;;;124.40;46.40;;;;;;;;;;5136430;27;20050;-80
2022/01/16 06:37:26;;;;;;;133.88;45.95;;;;;;;;;;5154832;27;20038;-79
2022/01/16 06:39:52;;;;;;;122.15;45.50;;;;;;;;;;5154752;27;20082;-80
2022/01/16 06:42:19;;;;;;;122.65;45.78;;;;;;;;;;5136292;27;20487;-79
2022/01/16 06:44:45;;;;;;;128.85;46.28;;;;;;;;;;5136256;27;20047;-80
2022/01/16 06:47:11;;;;;;;126.15;46.17;;;;;;;;;;5154438;27;20455;-80
2022/01/16 06:49:37;;;;;;;127.30;45.78;;;;;;;;;;5154930;27;20054;-80
2022/01/16 06:52:04;;;;;;;135.25;47.63;;;;;;;;;;5154636;27;20110;-79
2022/01/16 06:54:30;;;;;;;134.85;46.92;;;;;;;;;;5154498;27;20142;-79
2022/01/16 06:56:56;;;;;;;128.00;45.05;;;;;;;;;;5136257;27;20117;-80
2022/01/16 06:59:22;;;;;;;133.10;47.33;;;;;;;;;;5154702;27;20043;-79
2022/01/16 07:01:48;;;;;;;138.23;47.35;;;;;;;;;;5154235;27;20049;-80
2022/01/16 07:04:14;;;;;;;128.27;45.25;;;;;;;;;;5135801;27;20417;-79
2022/01/16 07:06:40;;;;;;;135.50;47.53;;;;;;;;;;5154433;27;20083;-80
2022/01/16 07:09:06;;;;;;;141.82;47.05;;;;;;;;;;5154390;27;20038;-80
2022/01/16 07:11:33;;;;;;;134.05;46.78;;;;;;;;;;5118443;27;20043;-80
2022/01/16 07:13:59;;;;;;;146.63;49.53;;;;;;;;;;5136031;27;20050;-80
2022/01/16 07:16:25;;;;;;;142.65;48.08;;;;;;;;;;5154052;27;20046;-80
2022/01/16 07:18:51;;;;;;;163.82;51.22;;;;;;;;;;5154469;27;20121;-81
2022/01/16 07:21:17;;;;;;;160.95;53.78;;;;;;;;;;5135713;27;20125;-80
2022/01/16 07:23:49;;;;;;;146.07;50.20;;;;;;;;;;5154225;27;20053;-80
2022/01/16 07:26:18;;;;;;;145.13;49.05;;;;;;;;;;5154152;27;20054;-80
2022/01/16 07:28:44;;;;;;;147.00;48.58;;;;;;;;;;5153847;27;20536;-80
2022/01/16 07:31:10;;;;;;;147.15;49.00;;;;;;;;;;5154140;27;20051;-81
2022/01/16 07:33:36;;;;;;;134.75;45.30;;;;;;;;;;5135643;27;20046;-80
2022/01/16 07:36:03;;;;;;;147.05;48.20;;;;;;;;;;5136713;27;20078;-80
2022/01/16 07:38:29;;;;;;;149.55;50.42;;;;;;;;;;5158189;27;20042;-80
2022/01/16 07:40:55;;;;;;;145.30;48.88;;;;;;;;;;5139949;27;20038;-80
2022/01/16 07:43:22;;;;;;;145.57;48.22;;;;;;;;;;5158022;27;20134;-80
2022/01/16 07:45:48;;;;;;;135.82;47.90;;;;;;;;;;5157900;27;20499;-79
2022/01/16 07:48:14;;;;;;;153.00;49.22;;;;;;;;;;5157933;27;20045;-80
2022/01/16 07:50:41;;;;;;;140.70;46.58;;;;;;;;;;5157883;27;20168;-80
2022/01/16 07:53:07;;;;;;;134.40;48.85;;;;;;;;;;5157925;27;20042;-80
2022/01/16 07:55:33;;;;;;;158.43;52.00;;;;;;;;;;5157501;27;20074;-80
2022/01/16 07:58:00;;;;;;;155.82;50.03;;;;;;;;;;5157540;27;20050;-80
2022/01/16 08:00:27;;;;;;;144.88;48.70;;;;;;;;;;5138702;27;20460;-80
2022/01/16 08:02:53;;;;;;;141.13;48.08;;;;;;;;;;5157803;27;20043;-79
2022/01/16 08:05:20;;;;;;;156.90;50.40;;;;;;;;;;5157266;27;20046;-80
2022/01/16 08:07:46;;;;;;;149.90;51.40;;;;;;;;;;5145962;27;20035;-80
2022/01/16 08:10:12;;;;;;;139.30;47.33;;;;;;;;;;5136595;27;20118;-79
2022/01/16 08:12:38;;;;;;;132.32;47.95;;;;;;;;;;5136546;27;20138;-80
2022/01/16 08:15:06;;;;;;;144.43;50.47;;;;;;;;;;5101761;27;20046;-80
2022/01/16 08:17:32;;;;;;;144.35;50.67;;;;;;;;;;5118217;27;20383;-80
2022/01/16 08:19:58;;;;;;;136.48;48.75;;;;;;;;;;5135865;27;20118;-81
2022/01/16 08:22:24;;;;;;;147.98;51.28;;;;;;;;;;5136364;27;20046;-80
2022/01/16 08:24:50;;;;;;;133.63;46.58;;;;;;;;;;5136562;27;20079;-81
2022/01/16 08:27:17;;;;;;;144.90;51.30;;;;;;;;;;5135895;27;20400;-80
2022/01/16 08:29:43;;;;;;;130.05;46.88;;;;;;;;;;5136559;27;20468;-80
2022/01/16 08:32:09;;;;;;;134.23;48.53;;;;;;;;;;5117909;27;20047;-80
2022/01/16 08:34:36;;;;;;;151.55;51.20;;;;;;;;;;5136247;27;20050;-80
2022/01/16 08:37:02;;;;;;;157.20;51.03;;;;;;;;;;5136246;27;20089;-79
2022/01/16 08:39:28;;;;;;;136.43;49.97;;;;;;;;;;5136149;27;20046;-80
2022/01/16 08:41:54;;;;;;;132.18;46.33;;;;;;;;;;5136037;27;20039;-81
2022/01/16 08:44:20;;;;;;;134.60;49.50;;;;;;;;;;5117867;27;20126;-80
2022/01/16 08:46:47;;;;;;;149.80;52.63;;;;;;;;;;5117978;27;20049;-81
2022/01/16 08:49:14;;;;;;;133.77;51.20;;;;;;;;;;5116993;27;20046;-81
2022/01/16 08:51:40;;;;;;;137.88;51.42;;;;;;;;;;5136099;27;20130;-81
2022/01/16 08:54:06;;;;;;;127.03;48.05;;;;;;;;;;5135944;27;20110;-81
2022/01/16 08:56:32;;;;;;;137.45;50.55;;;;;;;;;;5135823;27;20043;-80
2022/01/16 08:58:59;;;;;;;134.68;50.65;;;;;;;;;;5136089;27;20066;-81
2022/01/16 09:01:25;;;;;;;125.82;47.25;;;;;;;;;;5135816;27;20038;-79
2022/01/16 09:03:51;;;;;;;134.20;49.55;;;;;;;;;;5135936;27;20039;-80
2022/01/16 09:06:17;;;;;;;128.15;51.10;;;;;;;;;;5117316;27;20133;-81
2022/01/16 09:08:43;;;;;;;129.10;49.10;;;;;;;;;;5135767;27;20062;-80
2022/01/16 09:11:10;;;;;;;125.30;49.65;;;;;;;;;;5135406;27;20117;-80
2022/01/16 09:13:38;;;;;;;122.35;48.35;;;;;;;;;;5135730;27;20043;-80
2022/01/16 09:16:04;;;;;;;126.20;50.58;;;;;;;;;;5135446;27;20472;-80
2022/01/16 09:18:31;;;;;;;122.32;49.40;;;;;;;;;;5135527;27;20039;-80
2022/01/16 09:20:57;;;;;;;122.57;49.40;;;;;;;;;;5135523;27;20396;-80
2022/01/16 09:23:23;;;;;;;121.20;49.40;;;;;;;;;;5117235;27;20046;-80
2022/01/16 09:25:49;;;;;;;114.50;49.17;;;;;;;;;;5135300;27;20107;-80
2022/01/16 09:28:16;;;;;;;119.78;51.15;;;;;;;;;;5135399;27;20055;-81
2022/01/16 09:30:42;;;;;;;120.13;49.45;;;;;;;;;;5135346;27;20396;-81
2022/01/16 09:33:08;;;;;;;107.35;46.97;;;;;;;;;;5116867;27;20043;-81
2022/01/16 09:35:34;;;;;;;122.28;50.03;;;;;;;;;;5135246;27;20096;-80
2022/01/16 09:38:01;;;;;;;120.55;50.47;;;;;;;;;;5134979;27;20039;-80
2022/01/16 09:40:28;;;;;;;112.65;47.35;;;;;;;;;;5116707;27;20545;-80
2022/01/16 09:42:54;;;;;;;102.07;47.08;;;;;;;;;;5135190;27;20083;-81
2022/01/16 09:45:20;;;;;;;107.20;46.75;;;;;;;;;;5135123;27;20099;-80
2022/01/16 09:47:48;;;;;;;105.15;46.72;;;;;;;;;;5134972;27;20043;-81
2022/01/16 09:50:17;;;;;;;98.75;46.13;;;;;;;;;;5116391;27;20491;-81
2022/01/16 09:52:44;;;;;;;88.25;43.25;;;;;;;;;;5116370;27;20054;-81
2022/01/16 09:55:10;;;;;;;87.63;43.45;;;;;;;;;;5134824;27;20054;-80
2022/01/16 09:57:36;;;;;;;83.20;44.40;;;;;;;;;;5116685;27;20043;-80
2022/01/16 10:00:05;;;;;;;86.50;43.20;;;;;;;;;;5134622;27;20043;-80
2022/01/16 10:02:31;;;;;;;79.57;41.90;;;;;;;;;;5134456;27;20039;-80
2022/01/16 10:04:57;;;;;;;81.40;42.60;;;;;;;;;;5116188;27;20184;-80
2022/01/16 10:07:23;;;;;;;86.57;45.75;;;;;;;;;;5134239;27;20118;-81
2022/01/16 10:10:09;;;;;;;87.03;41.33;;;;;;;;;;5134626;27;20039;-81
2022/01/16 10:12:40;;;;;;;75.18;42.72;;;;;;;;;;5134286;27;20552;-81
2022/01/16 10:15:17;;;;;;;84.20;43.55;;;;;;;;;;5134411;27;20047;-80
2022/01/16 10:17:44;;;;;;;85.20;44.17;;;;;;;;;;5134213;27;20050;-80
2022/01/16 10:20:10;;;;;;;79.68;42.85;;;;;;;;;;5134430;27;20035;-80
2022/01/16 10:22:46;;;;;;;78.55;42.63;;;;;;;;;;5134555;27;20125;-80
2022/01/16 10:25:13;;;;;;;73.70;42.42;;;;;;;;;;5134119;27;20047;-80
2022/01/16 10:27:40;;;;;;;72.10;40.20;;;;;;;;;;5098964;27;20043;-81
2022/01/16 10:30:07;;;;;;;68.68;38.08;;;;;;;;;;5115751;27;20072;-79
2022/01/16 10:32:36;;;;;;;69.00;38.65;;;;;;;;;;5115902;27;20181;-80
2022/01/16 10:35:31;;;;;;;66.00;36.13;;;;;;;;;;5134069;27;20395;-80
2022/01/16 10:37:59;;;;;;;65.05;37.03;;;;;;;;;;5112421;27;20053;-81
2022/01/16 10:40:32;;;;;;;64.43;37.55;;;;;;;;;;5115706;27;20073;-81
2022/01/16 10:43:04;;;;;;;71.07;38.30;;;;;;;;;;5133908;27;20428;-81
2022/01/16 10:45:31;;;;;;;62.58;36.92;;;;;;;;;;5133950;27;20436;-80
2022/01/16 10:47:58;;;;;;;63.55;35.92;;;;;;;;;;5115457;27;20043;-81
2022/01/16 10:50:44;;;;;;;66.05;36.38;;;;;;;;;;5133719;27;20138;-80
2022/01/16 10:53:13;;;;;;;57.67;34.13;;;;;;;;;;5133714;27;20043;-81
2022/01/16 10:55:49;;;;;;;65.78;34.38;;;;;;;;;;5115803;27;20035;-80
2022/01/16 10:58:17;;;;;;;58.42;33.05;;;;;;;;;;5133831;27;20055;-80
2022/01/16 11:01:00;;;;;;;62.15;32.72;;;;;;;;;;5133730;27;20369;-80
2022/01/16 11:03:27;;;;;;;57.35;31.63;;;;;;;;;;5133693;27;20043;-81
2022/01/16 11:05:53;;;;;;;61.45;34.95;;;;;;;;;;5133573;27;20042;-81
2022/01/16 11:08:21;;;;;;;64.05;35.42;;;;;;;;;;5133668;27;20043;-81
2022/01/16 11:10:48;;;;;;;54.03;31.67;;;;;;;;;;5133019;27;20039;-81
2022/01/16 11:13:19;;;;;;;56.25;31.83;;;;;;;;;;5133551;27;20047;-81
2022/01/16 11:15:47;;;;;;;60.40;32.38;;;;;;;;;;5133542;28;20043;-81
2022/01/16 11:18:14;;;;;;;55.38;31.90;;;;;;;;;;5133324;28;20100;-79
2022/01/16 11:20:43;;;;;;;52.15;30.13;;;;;;;;;;5115423;28;20046;-80
2022/01/16 11:23:29;;;;;;;50.85;29.23;;;;;;;;;;5133378;28;20047;-80
2022/01/16 11:26:03;;;;;;;59.28;30.33;;;;;;;;;;5133037;28;20055;-80
2022/01/16 11:28:30;;;;;;;52.35;27.98;;;;;;;;;;5133219;28;20079;-81
2022/01/16 11:30:58;;;;;;;50.00;27.30;;;;;;;;;;5133291;28;20035;-81
2022/01/16 11:33:25;;;;;;;47.03;26.45;;;;;;;;;;5133574;28;20464;-81
2022/01/16 11:35:51;;;;;;;48.58;27.17;;;;;;;;;;5133283;28;20095;-81
2022/01/16 11:38:19;;;;;;;46.92;26.30;;;;;;;;;;5133405;28;20043;-81
2022/01/16 11:40:46;;;;;;;48.88;27.08;;;;;;;;;;5133221;28;20043;-81
2022/01/16 11:43:13;;;;;;;44.03;25.15;;;;;;;;;;5114896;28;20043;-80
2022/01/16 11:45:45;;;;;;;44.30;24.20;;;;;;;;;;5115038;28;20070;-81
2022/01/16 11:48:12;;;;;;;40.33;23.52;;;;;;;;;;5115168;28;20042;-81
2022/01/16 11:50:38;;;;;;;39.35;23.52;;;;;;;;;;5133280;28;20039;-81
2022/01/16 11:53:05;;;;;;;43.25;24.02;;;;;;;;;;5133034;28;20098;-81
2022/01/16 11:55:35;;;;;;;44.38;24.20;;;;;;;;;;5114953;28;20041;-81
2022/01/16 11:58:01;;;;;;;44.07;24.53;;;;;;;;;;5115037;28;20082;-80
2022/01/16 12:00:48;;;;;;;43.17;24.35;;;;;;;;;;5133311;28;20095;-73
2022/01/16 12:03:34;;;;;;;44.67;24.25;;;;;;;;;;5133280;28;20047;-80
2022/01/16 12:06:33;;;;;;;42.17;22.15;;;;;;;;;;5114695;28;20074;-80
2022/01/16 12:09:01;;;;;;;39.17;21.27;;;;;;;;;;5054320;28;20083;-80
2022/01/16 12:11:37;;;;;;;40.30;23.02;;;;;;;;;;5132913;28;20043;-81
2022/01/16 12:14:04;;;;;;;38.30;21.17;;;;;;;;;;5132781;28;20127;-81
2022/01/16 12:16:33;;;;;;;35.97;18.92;;;;;;;;;;5132639;28;20043;-80
2022/01/16 12:19:17;;;;;;;36.95;20.02;;;;;;;;;;5114640;28;20054;-81
2022/01/16 12:21:52;;;;;;;39.95;20.70;;;;;;;;;;5133289;27;20039;-80
2022/01/16 12:24:38;;;;;;;37.80;20.35;;;;;;;;;;5118624;27;20059;-81
2022/01/16 12:27:27;;;;;;;37.17;19.65;;;;;;;;;;5136751;27;20407;-81
2022/01/16 12:30:12;;;;;;;35.40;18.73;;;;;;;;;;5123630;27;20078;-81
2022/01/16 12:32:58;;;;;;;36.03;18.55;;;;;;;;;;5136384;27;20043;-81
2022/01/16 12:35:40;;;;;;;37.53;18.23;;;;;;;;;;5087590;27;20057;-82
2022/01/16 12:38:25;;;;;;;29.92;16.33;;;;;;;;;;5118306;27;20101;-80
2022/01/16 12:40:59;;;;;;;33.25;17.38;;;;;;;;;;5136288;27;20089;-80
2022/01/16 12:43:29;;;;;;;31.73;16.70;;;;;;;;;;5118043;27;20084;-80
2022/01/16 12:45:56;;;;;;;32.78;15.02;;;;;;;;;;5136253;27;20047;-80
2022/01/16 12:48:22;;;;;;;31.30;14.30;;;;;;;;;;5117897;27;20403;-80
2022/01/16 12:50:48;;;;;;;29.10;14.73;;;;;;;;;;5135933;27;20448;-81
2022/01/16 12:53:30;;;;;;;28.95;13.40;;;;;;;;;;5118062;27;20039;-80
2022/01/16 12:55:56;;;;;;;23.08;12.68;;;;;;;;;;5135922;27;20453;-81
2022/01/16 12:58:22;;;;;;;25.70;13.23;;;;;;;;;;5117942;27;20039;-81
2022/01/16 13:00:58;;;;;;;24.65;12.35;;;;;;;;;;5117968;27;20039;-80
2022/01/16 13:03:25;;;;;;;20.58;11.05;;;;;;;;;;5117781;27;20437;-80
2022/01/16 13:05:51;;;;;;;22.55;11.23;;;;;;;;;;5117631;27;20495;-80
2022/01/16 13:08:17;;;;;;;24.27;11.13;;;;;;;;;;5135690;27;20038;-81
2022/01/16 13:10:43;;;;;;;21.15;10.15;;;;;;;;;;5135932;27;20383;-80
2022/01/16 13:13:12;;;;;;;26.45;10.82;;;;;;;;;;5117593;27;20065;-80
2022/01/16 13:15:39;;;;;;;23.17;10.05;;;;;;;;;;5135648;27;20488;-80
2022/01/16 13:18:12;;;;;;;26.98;10.32;;;;;;;;;;5135727;27;20047;-80
2022/01/16 13:20:38;;;;;;;22.58;10.05;;;;;;;;;;5135490;27;20076;-80
2022/01/16 13:23:04;;;;;;;22.80;10.02;;;;;;;;;;5117392;27;20122;-79
2022/01/16 13:25:30;;;;;;;18.20;10.25;;;;;;;;;;5135268;27;20055;-81
2022/01/16 13:27:58;;;;;;;22.55;10.77;;;;;;;;;;5117417;27;20047;-80
2022/01/16 13:30:27;;;;;;;20.98;10.50;;;;;;;;;;5116957;27;20122;-80
2022/01/16 13:33:02;;;;;;;24.10;9.80;;;;;;;;;;5135364;27;20039;-80
2022/01/16 13:35:29;;;;;;;22.65;9.23;;;;;;;;;;5134682;27;20104;-80
2022/01/16 13:38:08;;;;;;;18.20;9.88;;;;;;;;;;5135514;27;20039;-79
2022/01/16 13:40:34;;;;;;;19.60;9.80;;;;;;;;;;5135309;27;20045;-80
2022/01/16 13:43:05;;;;;;;21.35;9.73;;;;;;;;;;5135092;27;20043;-80
2022/01/16 13:45:32;;;;;;;;;;;;;;;;;;5135501;27;20047;-80
2022/01/16 13:47:58;;;;;;;21.17;9.32;;;;;;;;;;5134798;27;19915;-80
2022/01/16 13:50:26;;;;;;;22.40;10.15;;;;;;;;;;5134844;27;20468;-80
2022/01/16 13:52:53;;;;;;;22.50;9.05;;;;;;;;;;5116377;27;20035;-81
2022/01/16 13:55:20;;;;;;;20.88;8.63;;;;;;;;;;5116806;27;20104;-81
2022/01/16 13:57:46;;;;;;;17.30;8.88;;;;;;;;;;5134989;27;20039;-80
2022/01/16 14:00:12;;;;;;;20.00;8.90;;;;;;;;;;5116732;27;20484;-81
2022/01/16 14:02:38;;;;;;;19.70;8.90;;;;;;;;;;5134613;27;20553;-80
2022/01/16 14:05:05;;;;;;;21.45;9.57;;;;;;;;;;5116326;27;20075;-79
2022/01/16 14:07:31;;;;;;;18.50;9.15;;;;;;;;;;5134739;27;20043;-80
2022/01/16 14:09:58;;;;;;;18.35;9.00;;;;;;;;;;5134566;27;20487;-80
2022/01/16 14:12:24;;;;;;;19.38;9.82;;;;;;;;;;5134537;27;20039;-80
2022/01/16 14:14:51;;;;;;;22.55;10.10;;;;;;;;;;5134435;27;20035;-80
2022/01/16 14:22:17;;;;;;;21.23;9.10;;;;;;;;;;5134413;27;20089;-80
2022/01/16 14:24:51;;;;;;;21.10;9.40;;;;;;;;;;5134215;27;20547;-80
2022/01/16 14:27:21;;;;;;;21.98;9.57;;;;;;;;;;5115304;27;20047;-81
2022/01/16 14:29:49;;;;;;;28.58;12.43;;;;;;;;;;5134006;27;20117;-80
2022/01/16 14:32:15;;;;;;;20.67;9.80;;;;;;;;;;5115343;27;20039;-74
2022/01/16 14:34:42;;;;;;;28.08;10.77;;;;;;;;;;5134188;27;20099;-74
2022/01/16 14:37:09;;;;;;;24.10;10.43;;;;;;;;;;5134241;27;20039;-73
2022/01/16 14:39:35;;;;;;;26.02;9.98;;;;;;;;;;5133671;27;20043;-80
2022/01/16 14:42:01;;;;;;;20.40;8.48;;;;;;;;;;5115594;27;20043;-80
2022/01/16 14:44:29;;;;;;;20.00;9.15;;;;;;;;;;5115375;27;20054;-80
2022/01/16 14:46:55;;;;;;;20.67;9.60;;;;;;;;;;5115239;27;20043;-81
2022/01/16 14:49:22;;;;;;;21.60;9.77;;;;;;;;;;5133862;27;20043;-81
2022/01/16 14:51:48;;;;;;;21.08;8.95;;;;;;;;;;5115724;27;20051;-80
2022/01/16 14:54:14;;;;;;;18.65;7.97;;;;;;;;;;5115575;27;20043;-80
2022/01/16 14:56:41;;;;;;;19.27;8.70;;;;;;;;;;5115192;27;20046;-81
2022/01/16 14:59:08;;;;;;;19.42;8.48;;;;;;;;;;5133653;27;20043;-81
2022/01/16 15:01:34;;;;;;;19.17;9.05;;;;;;;;;;5133804;27;20130;-81
2022/01/16 15:04:01;;;;;;;17.92;8.57;;;;;;;;;;5133778;27;20078;-81
2022/01/16 15:06:27;;;;;;;17.95;8.30;;;;;;;;;;5115498;27;20122;-80